createdAt,value
2019-05-22T00:00:29.168Z,10.13
2019-05-22T00:03:03.277Z,12.80
2019-05-22T00:05:34.482Z,11.90
2019-05-22T00:08:08.752Z,15.40
2019-05-22T00:10:39.408Z,10.57
2019-05-22T00:13:09.808Z,12.27
2019-05-22T00:15:39.886Z,13.13
2019-05-22T00:18:10.253Z,14.50
2019-05-22T00:20:39.276Z,20.23
2019-05-22T00:23:08.523Z,13.63
2019-05-22T00:25:38.016Z,14.60
2019-05-22T00:28:07.018Z,12.30
2019-05-22T00:30:37.347Z,14.23
2019-05-22T00:33:05.939Z,13.50
2019-05-22T00:35:36.937Z,15.93
2019-05-22T00:38:07.470Z,10.20
2019-05-22T00:40:38.399Z,15.50
2019-05-22T00:43:13.752Z,16.47
2019-05-22T00:45:38.409Z,16.80
2019-05-22T00:48:07.706Z,14.23
2019-05-22T00:50:40.927Z,8.10
2019-05-22T00:53:27.843Z,11.67
2019-05-22T00:56:04.625Z,13.97
2019-05-22T00:58:35.228Z,15.87
2019-05-22T01:01:06.112Z,17.10
2019-05-22T01:03:36.328Z,13.87
2019-05-22T01:06:05.872Z,14.87
2019-05-22T01:08:37.320Z,12.27
2019-05-22T01:11:07.609Z,16.10
2019-05-22T01:13:37.490Z,17.83
2019-05-22T01:16:07.858Z,16.93
2019-05-22T01:18:38.951Z,12.63
2019-05-22T01:21:07.808Z,14.47
2019-05-22T01:23:36.653Z,20.90
2019-05-22T01:26:05.733Z,13.60
2019-05-22T01:28:37.187Z,17.63
2019-05-22T01:31:10.626Z,14.17
2019-05-22T01:33:40.926Z,17.33
2019-05-22T01:36:11.578Z,14.63
2019-05-22T01:38:42.398Z,14.00
2019-05-22T01:41:27.639Z,21.23
2019-05-22T01:43:59.717Z,13.53
2019-05-22T01:46:32.815Z,18.63
2019-05-22T01:49:21.981Z,17.93
2019-05-22T01:51:51.234Z,13.53
2019-05-22T01:54:21.751Z,15.27
2019-05-22T01:56:51.610Z,15.13
2019-05-22T01:59:21.177Z,15.50
2019-05-22T02:01:49.766Z,15.00
2019-05-22T02:04:19.534Z,15.20
2019-05-22T02:06:48.258Z,14.13
2019-05-22T02:09:27.205Z,14.20
2019-05-22T02:12:06.355Z,16.17
2019-05-22T02:14:35.778Z,14.30
2019-05-22T02:17:05.697Z,15.53
2019-05-22T02:19:35.314Z,11.73
2019-05-22T02:22:06.256Z,17.33
2019-05-22T02:24:36.782Z,16.23
2019-05-22T02:27:06.178Z,17.73
2019-05-22T02:29:35.989Z,12.60
2019-05-22T02:32:07.013Z,10.33
2019-05-22T02:34:37.115Z,9.77
2019-05-22T02:37:07.751Z,11.67
2019-05-22T02:39:38.546Z,15.67
2019-05-22T02:42:13.160Z,10.67
2019-05-22T02:44:42.769Z,9.97
2019-05-22T02:47:19.925Z,14.00
2019-05-22T02:49:45.420Z,26.20
2019-05-22T02:52:16.609Z,28.30
2019-05-22T02:54:45.367Z,10.17
2019-05-22T02:57:14.367Z,12.83
2019-05-22T02:59:43.263Z,9.87
2019-05-22T03:02:14.108Z,11.10
2019-05-22T03:04:50.099Z,16.33
2019-05-22T03:07:18.954Z,14.17
2019-05-22T03:09:47.976Z,14.70
2019-05-22T03:12:17.031Z,11.27
2019-05-22T03:14:47.517Z,14.63
2019-05-22T03:17:20.798Z,11.60
2019-05-22T03:19:51.361Z,11.67
2019-05-22T03:22:26.805Z,13.80
2019-05-22T03:24:57.982Z,16.83
2019-05-22T03:27:42.725Z,11.33
2019-05-22T03:30:30.687Z,14.63
2019-05-22T03:33:02.541Z,17.00
2019-05-22T03:35:35.521Z,10.80
2019-05-22T03:38:05.053Z,17.53
2019-05-22T03:40:37.142Z,13.13
2019-05-22T03:43:11.620Z,18.17
2019-05-22T03:45:42.145Z,16.97
2019-05-22T03:48:11.009Z,14.00
2019-05-22T03:50:40.796Z,18.53
2019-05-22T03:53:18.037Z,12.30
2019-05-22T03:55:48.661Z,12.07
2019-05-22T03:58:18.784Z,17.10
2019-05-22T04:00:49.908Z,13.87
2019-05-22T04:03:19.621Z,11.07
2019-05-22T04:05:48.735Z,12.43
2019-05-22T04:08:19.289Z,13.03
2019-05-22T04:11:07.033Z,14.90
2019-05-22T04:13:36.012Z,16.40
2019-05-22T04:16:06.809Z,13.93
2019-05-22T04:18:37.475Z,13.40
2019-05-22T04:21:06.323Z,18.70
2019-05-22T04:23:35.990Z,14.27
2019-05-22T04:26:08.842Z,18.73
2019-05-22T04:28:49.473Z,18.27
2019-05-22T04:31:18.621Z,20.40
2019-05-22T04:33:47.606Z,15.17
2019-05-22T04:36:16.935Z,16.20
2019-05-22T04:38:46.083Z,11.70
2019-05-22T04:41:15.312Z,16.13
2019-05-22T04:43:44.323Z,23.63
2019-05-22T04:46:14.000Z,13.60
2019-05-22T04:48:46.059Z,15.67
2019-05-22T04:51:24.073Z,19.40
2019-05-22T04:53:53.486Z,15.60
2019-05-22T04:56:24.353Z,17.23
2019-05-22T04:58:54.574Z,13.50
2019-05-22T05:01:24.685Z,13.53
2019-05-22T05:03:53.601Z,22.70
2019-05-22T05:06:23.946Z,15.60
2019-05-22T05:08:52.848Z,19.30
2019-05-22T05:11:21.779Z,21.43
2019-05-22T05:13:50.624Z,16.90
2019-05-22T05:16:19.274Z,17.30
2019-05-22T05:18:48.187Z,15.07
2019-05-22T05:21:17.106Z,9.33
2019-05-22T05:23:46.354Z,23.17
2019-05-22T05:26:15.675Z,17.30
2019-05-22T05:28:45.348Z,17.63
2019-05-22T05:31:14.696Z,19.57
2019-05-22T05:34:04.632Z,28.47
2019-05-22T05:36:34.253Z,23.93
2019-05-22T05:39:05.786Z,17.47
2019-05-22T05:41:34.405Z,13.80
2019-05-22T05:44:04.046Z,16.10
2019-05-22T05:46:32.626Z,22.10
2019-05-22T05:49:01.682Z,15.33
2019-05-22T05:51:33.956Z,22.63
2019-05-22T05:54:06.356Z,25.10
2019-05-22T05:56:39.305Z,19.77
2019-05-22T05:59:09.259Z,15.53
2019-05-22T06:01:40.444Z,14.23
2019-05-22T06:04:10.042Z,10.73
2019-05-22T06:06:44.623Z,7.37
2019-05-22T06:09:21.358Z,17.20
2019-05-22T06:11:53.927Z,11.13
2019-05-22T06:14:25.772Z,17.07
2019-05-22T06:17:26.268Z,14.37
2019-05-22T06:20:04.208Z,12.20
2019-05-22T06:22:33.617Z,10.43
2019-05-22T06:25:04.603Z,22.63
2019-05-22T06:27:35.313Z,15.20
2019-05-22T06:30:10.219Z,17.03
2019-05-22T06:33:13.652Z,9.20
2019-05-22T06:35:44.475Z,7.67
2019-05-22T06:38:37.450Z,12.40
2019-05-22T06:41:07.123Z,9.77
2019-05-22T06:43:41.686Z,11.80
2019-05-22T06:46:12.469Z,11.97
2019-05-22T06:48:42.359Z,9.50
2019-05-22T06:51:19.327Z,9.33
2019-05-22T06:53:41.975Z,9.03
2019-05-22T06:56:10.558Z,10.77
2019-05-22T06:58:39.338Z,12.37
2019-05-22T07:01:07.946Z,13.03
2019-05-22T07:03:36.607Z,7.73
2019-05-22T07:06:06.113Z,14.17
2019-05-22T07:08:35.457Z,17.63
2019-05-22T07:11:04.765Z,13.20
2019-05-22T07:13:34.113Z,11.13
2019-05-22T07:16:03.692Z,15.17
2019-05-22T07:18:33.270Z,16.87
2019-05-22T07:21:03.415Z,14.90
2019-05-22T07:23:34.400Z,13.03
2019-05-22T07:26:03.380Z,11.77
2019-05-22T07:28:33.226Z,15.13
2019-05-22T07:31:02.933Z,15.30
2019-05-22T07:33:32.707Z,14.27
2019-05-22T07:36:12.104Z,12.10
2019-05-22T07:38:32.619Z,15.50
2019-05-22T07:41:02.024Z,16.03
2019-05-22T07:43:31.028Z,17.67
2019-05-22T07:46:00.689Z,10.50
2019-05-22T07:48:31.081Z,13.90
2019-05-22T07:51:03.546Z,15.63
2019-05-22T07:53:32.527Z,16.80
2019-05-22T07:56:05.253Z,17.23
2019-05-22T07:58:35.177Z,11.70
2019-05-22T08:01:04.957Z,13.33
2019-05-22T08:03:34.284Z,12.30
2019-05-22T08:06:03.011Z,17.40
2019-05-22T08:08:33.190Z,15.13
2019-05-22T08:11:02.255Z,17.17
2019-05-22T08:13:32.229Z,17.87
2019-05-22T08:16:02.683Z,13.50
2019-05-22T08:18:33.410Z,17.07
2019-05-22T08:21:02.375Z,17.20
2019-05-22T08:23:31.112Z,19.20
2019-05-22T08:26:00.417Z,14.20
2019-05-22T08:28:31.924Z,17.00
2019-05-22T08:31:01.490Z,25.37
2019-05-22T08:33:32.186Z,16.27
2019-05-22T08:36:02.976Z,21.13
2019-05-22T08:38:33.212Z,13.03
2019-05-22T08:41:04.799Z,10.07
2019-05-22T08:43:55.890Z,10.77
2019-05-22T08:46:07.691Z,11.37
2019-05-22T08:48:39.186Z,9.00
2019-05-22T08:51:10.501Z,11.77
2019-05-22T08:53:47.650Z,7.37
2019-05-22T08:56:12.659Z,13.97
2019-05-22T08:58:42.379Z,8.60
2019-05-22T09:01:11.939Z,7.83
2019-05-22T09:03:41.237Z,12.60
2019-05-22T09:06:10.528Z,8.13
2019-05-22T09:08:39.225Z,9.93
2019-05-22T09:11:08.421Z,9.10
2019-05-22T09:13:37.682Z,12.80
2019-05-22T09:16:08.217Z,18.97
2019-05-22T09:18:36.804Z,5.83
2019-05-22T09:21:06.527Z,5.17
2019-05-22T09:23:36.047Z,6.30
2019-05-22T09:26:06.739Z,5.40
2019-05-22T09:28:35.393Z,6.73
2019-05-22T09:31:05.614Z,6.83
2019-05-22T09:33:36.044Z,4.80
2019-05-22T09:36:05.778Z,7.30
2019-05-22T09:38:34.905Z,5.10
2019-05-22T09:41:04.288Z,6.13
2019-05-22T09:43:33.519Z,7.27
2019-05-22T09:46:02.511Z,9.03
2019-05-22T09:48:31.739Z,6.53
2019-05-22T09:51:00.899Z,10.63
2019-05-22T09:53:31.676Z,8.60
2019-05-22T09:56:00.475Z,6.20
2019-05-22T09:58:29.530Z,9.90
2019-05-22T10:00:58.789Z,5.87
2019-05-22T10:03:27.746Z,10.80
2019-05-22T10:05:56.660Z,6.27
2019-05-22T10:08:25.384Z,6.80
2019-05-22T10:10:54.303Z,7.33
2019-05-22T10:13:23.726Z,6.60
2019-05-22T10:15:52.753Z,7.37
2019-05-22T10:18:21.864Z,9.27
2019-05-22T10:20:50.431Z,13.27
2019-05-22T10:23:19.794Z,8.47
2019-05-22T10:25:48.451Z,8.03
2019-05-22T10:28:17.687Z,6.10
2019-05-22T10:30:46.469Z,11.27
2019-05-22T10:33:15.239Z,9.60
2019-05-22T10:35:44.160Z,8.60
2019-05-22T10:38:13.248Z,11.90
2019-05-22T10:40:41.958Z,8.73
2019-05-22T10:43:10.686Z,10.60
2019-05-22T10:45:39.764Z,11.63
2019-05-22T10:48:08.581Z,6.00
2019-05-22T10:50:37.514Z,9.60
2019-05-22T10:53:06.507Z,9.30
2019-05-22T10:55:35.898Z,7.60
2019-05-22T10:58:05.565Z,7.90
2019-05-22T11:00:34.564Z,6.37
2019-05-22T11:03:03.920Z,6.83
2019-05-22T11:05:33.776Z,6.73
2019-05-22T11:08:02.963Z,6.57
2019-05-22T11:10:32.347Z,8.53
2019-05-22T11:13:00.996Z,7.70
2019-05-22T11:15:29.852Z,5.53
2019-05-22T11:17:58.761Z,5.77
2019-05-22T11:20:27.980Z,4.60
2019-05-22T11:22:56.870Z,5.43
2019-05-22T11:25:25.707Z,5.80
2019-05-22T11:27:54.591Z,6.87
2019-05-22T11:30:24.014Z,3.87
2019-05-22T11:32:53.956Z,6.50
2019-05-22T11:35:22.901Z,8.87
2019-05-22T11:37:51.839Z,7.33
2019-05-22T11:40:22.882Z,5.07
2019-05-22T11:42:53.575Z,5.00
2019-05-22T11:45:22.818Z,6.47
2019-05-22T11:47:52.447Z,5.80
2019-05-22T11:50:22.301Z,8.00
2019-05-22T11:52:51.350Z,5.60
2019-05-22T11:55:21.036Z,8.40
2019-05-22T11:57:50.094Z,6.50
2019-05-22T12:00:21.336Z,8.90
2019-05-22T12:02:51.621Z,6.27
2019-05-22T12:05:21.442Z,5.77
2019-05-22T12:07:50.310Z,7.87
2019-05-22T12:10:22.094Z,4.70
2019-05-22T12:12:52.976Z,5.10
2019-05-22T12:15:25.487Z,4.20
2019-05-22T12:17:54.968Z,6.97
2019-05-22T12:20:25.253Z,6.40
2019-05-22T12:22:54.115Z,4.93
2019-05-22T12:25:23.310Z,6.10
2019-05-22T12:27:52.020Z,7.53
2019-05-22T12:30:23.135Z,6.90
2019-05-22T12:32:52.944Z,4.23
2019-05-22T12:35:22.146Z,5.13
2019-05-22T12:37:50.982Z,7.10
2019-05-22T12:40:20.875Z,6.37
2019-05-22T12:42:51.712Z,5.73
2019-05-22T12:45:28.680Z,5.47
2019-05-22T12:47:57.679Z,8.40
2019-05-22T12:50:29.981Z,7.23
2019-05-22T12:53:01.321Z,7.40
2019-05-22T12:55:30.521Z,5.40
2019-05-22T12:58:00.643Z,10.50
2019-05-22T13:00:30.081Z,8.97
2019-05-22T13:03:00.798Z,5.90
2019-05-22T13:05:30.006Z,6.43
2019-05-22T13:07:59.431Z,9.13
2019-05-22T13:10:28.725Z,7.70
2019-05-22T13:12:58.927Z,5.90
2019-05-22T13:15:27.863Z,8.20
2019-05-22T13:17:58.135Z,13.43
2019-05-22T13:20:42.689Z,7.30
2019-05-22T13:23:04.682Z,7.43
2019-05-22T13:25:37.031Z,8.73
2019-05-22T13:28:07.036Z,7.73
2019-05-22T13:30:39.195Z,7.40
2019-05-22T13:33:11.331Z,8.97
2019-05-22T13:35:41.874Z,6.47
2019-05-22T13:38:12.895Z,10.07
2019-05-22T13:40:42.668Z,9.50
2019-05-22T13:43:11.721Z,9.40
2019-05-22T13:45:40.647Z,8.60
2019-05-22T13:48:09.859Z,8.80
2019-05-22T13:50:39.354Z,9.93
2019-05-22T13:53:10.418Z,9.40
2019-05-22T13:55:39.639Z,9.57
2019-05-22T13:58:09.072Z,6.70
2019-05-22T14:00:38.940Z,9.00
2019-05-22T14:03:08.575Z,7.23
2019-05-22T14:05:38.188Z,6.60
2019-05-22T14:08:08.693Z,12.47
2019-05-22T14:10:39.783Z,6.17
2019-05-22T14:13:08.843Z,8.93
2019-05-22T14:15:50.603Z,8.17
2019-05-22T14:18:08.819Z,6.67
2019-05-22T14:20:38.586Z,10.93
2019-05-22T14:23:07.212Z,7.73
2019-05-22T14:25:36.891Z,6.50
2019-05-22T14:28:06.528Z,7.33
2019-05-22T14:30:35.711Z,8.13
2019-05-22T14:33:05.507Z,8.30
2019-05-22T14:35:47.578Z,6.10
2019-05-22T14:38:07.747Z,6.57
2019-05-22T14:40:38.479Z,4.83
2019-05-22T14:43:07.731Z,5.37
2019-05-22T14:45:37.225Z,11.53
2019-05-22T14:48:06.045Z,7.17
2019-05-22T14:50:35.098Z,4.53
2019-05-22T14:53:04.230Z,7.50
2019-05-22T14:55:34.885Z,7.80
2019-05-22T14:58:05.627Z,5.50
2019-05-22T15:00:37.980Z,7.20
2019-05-22T15:03:06.955Z,6.90
2019-05-22T15:05:35.936Z,7.43
2019-05-22T15:08:06.340Z,4.10
2019-05-22T15:10:36.122Z,5.47
2019-05-22T15:13:06.116Z,5.27
2019-05-22T15:15:35.121Z,8.10
2019-05-22T15:18:04.468Z,11.13
2019-05-22T15:20:38.054Z,4.73
2019-05-22T15:23:07.611Z,12.80
2019-05-22T15:25:36.670Z,7.93
2019-05-22T15:28:07.428Z,5.23
2019-05-22T15:30:36.520Z,3.83
2019-05-22T15:33:05.839Z,6.40
2019-05-22T15:35:35.156Z,5.40
2019-05-22T15:38:04.584Z,7.40
2019-05-22T15:40:33.772Z,10.70
2019-05-22T15:43:03.415Z,7.00
2019-05-22T15:45:34.472Z,6.50
2019-05-22T15:48:05.100Z,6.37
2019-05-22T15:50:35.323Z,15.43
2019-05-22T15:53:11.205Z,13.97
2019-05-22T15:55:41.369Z,7.57
2019-05-22T15:58:12.034Z,7.23
2019-05-22T16:00:43.223Z,5.63
2019-05-22T16:03:15.253Z,5.47
2019-05-22T16:05:45.124Z,10.70
2019-05-22T16:08:15.107Z,9.97
2019-05-22T16:10:46.666Z,7.63
2019-05-22T16:13:18.877Z,6.30
2019-05-22T16:15:51.887Z,5.90
2019-05-22T16:18:25.448Z,8.20
2019-05-22T16:20:54.936Z,8.00
2019-05-22T16:23:25.324Z,8.60
2019-05-22T16:25:55.251Z,10.83
2019-05-22T16:28:24.850Z,4.47
2019-05-22T16:30:54.860Z,4.60
2019-05-22T16:33:26.126Z,6.67
2019-05-22T16:35:54.838Z,4.10
2019-05-22T16:38:25.563Z,9.23
2019-05-22T16:40:54.579Z,5.80
2019-05-22T16:43:24.172Z,5.60
2019-05-22T16:45:53.455Z,9.60
2019-05-22T16:48:28.992Z,9.70
2019-05-22T16:50:53.865Z,5.60
2019-05-22T16:53:25.137Z,6.90
2019-05-22T16:55:55.023Z,3.77
2019-05-22T16:58:24.556Z,7.17
2019-05-22T17:00:56.668Z,8.30
2019-05-22T17:03:26.726Z,10.57
2019-05-22T17:05:55.797Z,11.17
2019-05-22T17:08:27.028Z,5.67
2019-05-22T17:10:57.853Z,4.70
2019-05-22T17:13:29.261Z,6.13
2019-05-22T17:15:59.153Z,3.87
2019-05-22T17:18:45.930Z,9.07
2019-05-22T17:21:03.033Z,3.77
2019-05-22T17:23:32.153Z,6.17
2019-05-22T17:26:01.334Z,4.07
2019-05-22T17:28:30.318Z,5.00
2019-05-22T17:30:59.444Z,3.73
2019-05-22T17:33:28.474Z,5.30
2019-05-22T17:35:57.301Z,4.90
2019-05-22T17:38:28.186Z,9.27
2019-05-22T17:40:58.491Z,6.43
2019-05-22T17:43:28.878Z,3.03
2019-05-22T17:45:58.260Z,2.50
2019-05-22T17:48:27.671Z,8.63
2019-05-22T17:50:56.615Z,2.70
2019-05-22T17:53:25.700Z,4.30
2019-05-22T17:55:54.739Z,3.90
2019-05-22T17:58:25.989Z,3.13
2019-05-22T18:00:54.438Z,4.87
2019-05-22T18:03:23.859Z,4.23
2019-05-22T18:05:52.776Z,7.90
2019-05-22T18:08:23.358Z,6.67
2019-05-22T18:10:52.238Z,2.63
2019-05-22T18:13:21.076Z,4.27
2019-05-22T18:15:49.711Z,3.33
2019-05-22T18:18:18.704Z,3.07
2019-05-22T18:20:47.464Z,4.30
2019-05-22T18:23:16.551Z,5.43
2019-05-22T18:25:45.453Z,11.00
2019-05-22T18:28:14.939Z,7.80
2019-05-22T18:30:44.710Z,5.97
2019-05-22T18:33:14.538Z,7.73
2019-05-22T18:35:43.433Z,7.43
2019-05-22T18:38:12.165Z,4.20
2019-05-22T18:40:41.183Z,5.57
2019-05-22T18:43:10.241Z,5.43
2019-05-22T18:45:40.556Z,6.07
2019-05-22T18:48:09.649Z,6.30
2019-05-22T18:50:38.455Z,6.57
2019-05-22T18:53:07.651Z,5.80
2019-05-22T18:55:36.334Z,7.03
2019-05-22T18:58:05.275Z,4.23
2019-05-22T19:00:34.481Z,5.03
2019-05-22T19:03:03.446Z,4.13
2019-05-22T19:05:32.930Z,6.53
2019-05-22T19:08:02.771Z,5.40
2019-05-22T19:10:31.902Z,4.50
2019-05-22T19:13:00.547Z,5.47
2019-05-22T19:15:29.261Z,3.87
2019-05-22T19:17:58.232Z,6.53
2019-05-22T19:20:26.874Z,6.60
2019-05-22T19:23:00.993Z,6.70
2019-05-22T19:25:26.528Z,7.67
2019-05-22T19:27:55.168Z,6.10
2019-05-22T19:30:24.090Z,6.97
2019-05-22T19:32:53.014Z,7.30
2019-05-22T19:35:21.777Z,4.83
2019-05-22T19:37:51.185Z,5.37
2019-05-22T19:40:20.179Z,7.73
2019-05-22T19:42:49.412Z,7.77
2019-05-22T19:45:18.907Z,8.17
2019-05-22T19:47:52.933Z,6.10
2019-05-22T19:50:23.921Z,8.20
2019-05-22T19:52:55.053Z,7.43
2019-05-22T19:55:25.900Z,9.60
2019-05-22T19:57:55.121Z,8.07
2019-05-22T20:00:24.680Z,5.80
2019-05-22T20:02:55.831Z,4.50
2019-05-22T20:05:25.522Z,11.70
2019-05-22T20:07:54.944Z,4.53
2019-05-22T20:10:23.815Z,3.50
2019-05-22T20:12:53.119Z,5.73
2019-05-22T20:15:22.523Z,7.80
2019-05-22T20:17:51.297Z,5.33
2019-05-22T20:20:22.437Z,4.87
2019-05-22T20:22:51.450Z,7.47
2019-05-22T20:25:22.084Z,7.23
2019-05-22T20:27:51.267Z,8.30
2019-05-22T20:30:22.851Z,6.43
2019-05-22T20:32:51.480Z,4.57
2019-05-22T20:35:20.403Z,6.43
2019-05-22T20:37:49.485Z,7.50
2019-05-22T20:40:20.424Z,4.10
2019-05-22T20:42:50.611Z,4.17
2019-05-22T20:45:21.782Z,8.97
2019-05-22T20:48:06.448Z,5.83
2019-05-22T20:50:36.256Z,4.23
2019-05-22T20:53:06.043Z,5.30
2019-05-22T20:55:35.226Z,6.63
2019-05-22T20:58:06.094Z,3.93
2019-05-22T21:00:34.921Z,4.50
2019-05-22T21:03:06.156Z,5.90
2019-05-22T21:05:37.320Z,7.10
2019-05-22T21:08:09.355Z,11.00
2019-05-22T21:10:40.863Z,7.27
2019-05-22T21:13:09.737Z,6.07
2019-05-22T21:15:38.672Z,5.97
2019-05-22T21:18:07.387Z,7.60
2019-05-22T21:20:35.963Z,6.37
2019-05-22T21:23:06.198Z,12.63
2019-05-22T21:25:35.307Z,8.07
2019-05-22T21:28:04.307Z,4.67
2019-05-22T21:30:34.288Z,5.57
2019-05-22T21:33:03.332Z,7.93
2019-05-22T21:35:31.910Z,7.73
2019-05-22T21:38:00.755Z,7.37
2019-05-22T21:40:29.559Z,14.00
2019-05-22T21:42:59.398Z,10.73
2019-05-22T21:45:28.909Z,8.40
2019-05-22T21:47:57.792Z,7.83
2019-05-22T21:50:26.440Z,7.13
2019-05-22T21:52:55.260Z,6.93
2019-05-22T21:55:24.691Z,6.73
2019-05-22T21:57:55.275Z,5.97
2019-05-22T22:00:40.255Z,6.20
2019-05-22T22:03:12.317Z,7.80
2019-05-22T22:05:41.730Z,7.90
2019-05-22T22:08:11.696Z,8.93
2019-05-22T22:10:41.321Z,7.47
2019-05-22T22:13:10.538Z,6.60
2019-05-22T22:15:43.959Z,9.50
2019-05-22T22:18:13.252Z,3.90
2019-05-22T22:20:42.908Z,4.60
2019-05-22T22:23:14.682Z,6.47
2019-05-22T22:25:44.632Z,5.20
2019-05-22T22:28:16.009Z,7.17
2019-05-22T22:30:58.965Z,5.20
2019-05-22T22:33:32.843Z,4.30
2019-05-22T22:36:03.499Z,13.90
2019-05-22T22:38:33.265Z,6.43
2019-05-22T22:41:02.611Z,3.57
2019-05-22T22:43:33.980Z,6.90
2019-05-22T22:46:06.481Z,3.03
2019-05-22T22:48:36.874Z,3.03
2019-05-22T22:51:08.586Z,7.03
2019-05-22T22:53:38.216Z,3.90
2019-05-22T22:56:08.304Z,6.40
2019-05-22T22:58:37.228Z,5.80
2019-05-22T23:01:08.914Z,3.37
2019-05-22T23:03:40.098Z,3.60
2019-05-22T23:06:11.628Z,5.13
2019-05-22T23:08:41.630Z,5.53
2019-05-22T23:11:11.146Z,3.53
2019-05-22T23:13:40.868Z,5.40
2019-05-22T23:16:11.893Z,3.60
2019-05-22T23:18:44.396Z,3.97
2019-05-22T23:21:15.910Z,3.30
2019-05-22T23:23:44.450Z,4.30
2019-05-22T23:26:15.041Z,3.40
2019-05-22T23:28:43.619Z,6.87
2019-05-22T23:31:14.858Z,2.97
2019-05-22T23:33:44.175Z,8.70
2019-05-22T23:36:13.591Z,6.40
2019-05-22T23:38:43.043Z,17.33
2019-05-22T23:41:13.827Z,5.33
2019-05-22T23:43:44.819Z,7.20
2019-05-22T23:46:14.935Z,4.47
2019-05-22T23:48:43.869Z,7.43
2019-05-22T23:51:12.869Z,4.10
2019-05-22T23:53:42.795Z,3.53
2019-05-22T23:56:11.816Z,4.40
2019-05-22T23:58:52.153Z,3.90
